Time;durP1;ratioP1;P1;durP2;ratioP2;P2;SDS_P1;SDS_P2;PMS_P1;PMS_P2;Temp;Humidity;BMP_temperature;BMP_pressure;BME280_temperature;BME280_humidity;BME280_pressure;Samples;Min_cycle;Max_cycle;Signal;HPM_P1;HPM_P2
2022/02/26 00:01:23;;;;;;;3.58;2.10;;;7.20;78.20;;;;;;4798036;29;20041;-84
2022/02/26 00:03:49;;;;;;;4.07;2.50;;;7.20;78.20;;;;;;4828329;29;20129;-85
2022/02/26 00:06:15;;;;;;;3.42;1.88;;;7.20;78.20;;;;;;4828217;29;20475;-84
2022/02/26 00:08:40;;;;;;;3.78;1.90;;;7.20;78.20;;;;;;4813616;29;20348;-84
2022/02/26 00:11:06;;;;;;;2.95;1.90;;;7.10;78.20;;;;;;4828068;29;20048;-85
2022/02/26 00:13:32;;;;;;;3.95;2.20;;;7.10;78.20;;;;;;4813128;29;20038;-83
2022/02/26 00:15:58;;;;;;;2.47;1.90;;;7.10;78.20;;;;;;4812750;29;20046;-84
2022/02/26 00:18:24;;;;;;;3.75;2.08;;;7.10;78.20;;;;;;4828504;29;20030;-84
2022/02/26 00:20:50;;;;;;;4.35;2.10;;;7.10;78.20;;;;;;4798421;29;20178;-84
2022/02/26 00:23:16;;;;;;;4.32;2.10;;;7.10;78.20;;;;;;4844234;29;20078;-84
2022/02/26 00:25:42;;;;;;;4.00;2.13;;;7.00;78.10;;;;;;4827675;29;20549;-84
2022/02/26 00:28:08;;;;;;;3.65;2.00;;;7.00;78.10;;;;;;4812572;29;20049;-83
2022/02/26 00:30:34;;;;;;;4.82;2.45;;;7.00;78.20;;;;;;4813247;29;20395;-85
2022/02/26 00:32:59;;;;;;;4.57;2.15;;;7.00;78.20;;;;;;4812577;29;20026;-84
2022/02/26 00:35:26;;;;;;;2.58;1.83;;;7.00;78.20;;;;;;4797884;29;20034;-85
2022/02/26 00:37:52;;;;;;;3.80;1.98;;;7.00;78.20;;;;;;4812483;29;20048;-85
2022/02/26 00:40:18;;;;;;;3.85;2.25;;;6.90;78.10;;;;;;4827465;29;20431;-81
2022/02/26 00:42:44;;;;;;;4.70;2.38;;;6.90;78.10;;;;;;4844131;29;20101;-82
2022/02/26 00:45:10;;;;;;;5.20;2.60;;;6.90;78.10;;;;;;4827303;29;20061;-79
2022/02/26 00:47:36;;;;;;;4.10;2.40;;;6.90;78.10;;;;;;4812504;29;20037;-85
2022/02/26 00:50:03;;;;;;;4.43;2.33;;;6.80;78.10;;;;;;4827845;29;20030;-85
2022/02/26 00:52:31;;;;;;;3.83;2.03;;;6.80;78.10;;;;;;4812987;29;20030;-86
2022/02/26 00:54:58;;;;;;;3.90;2.10;;;6.80;78.10;;;;;;4827481;29;20506;-86
2022/02/26 00:57:24;;;;;;;4.43;2.47;;;6.80;78.10;;;;;;4812469;29;20074;-85
2022/02/26 00:59:51;;;;;;;5.18;2.42;;;6.80;78.10;;;;;;4812408;29;20152;-85
2022/02/26 01:02:17;;;;;;;4.28;2.42;;;6.70;78.10;;;;;;4812166;29;20405;-85
2022/02/26 01:04:44;;;;;;;4.65;2.78;;;6.70;78.10;;;;;;4827512;29;20030;-85
2022/02/26 01:07:10;;;;;;;4.93;2.60;;;6.70;78.10;;;;;;4812886;29;20041;-85
2022/02/26 01:09:37;;;;;;;3.67;2.20;;;6.70;78.10;;;;;;4827359;29;20551;-85
2022/02/26 01:12:05;;;;;;;3.45;2.42;;;6.70;78.10;;;;;;4782888;29;20475;-85
2022/02/26 01:14:33;;;;;;;5.13;2.60;;;6.60;78.10;;;;;;4827056;29;20041;-86
2022/02/26 01:16:59;;;;;;;3.55;2.28;;;6.60;78.00;;;;;;4812006;29;20204;-85
2022/02/26 01:19:25;;;;;;;4.55;2.65;;;6.60;78.10;;;;;;4812309;29;20432;-85
2022/02/26 01:21:51;;;;;;;3.70;2.20;;;6.60;78.00;;;;;;4812113;29;20041;-85
2022/02/26 01:24:17;;;;;;;3.67;2.25;;;6.50;78.00;;;;;;4827498;29;20069;-85
2022/02/26 01:26:43;;;;;;;5.20;2.42;;;6.50;78.00;;;;;;4811837;29;20057;-85
2022/02/26 01:29:09;;;;;;;3.65;2.55;;;6.50;78.10;;;;;;4827250;29;20391;-85
2022/02/26 01:31:36;;;;;;;3.75;2.40;;;6.50;78.00;;;;;;4812292;29;20030;-85
2022/02/26 01:34:03;;;;;;;3.83;2.13;;;6.50;78.10;;;;;;4827098;29;20117;-85
2022/02/26 01:36:29;;;;;;;3.83;2.50;;;6.40;78.00;;;;;;4843605;29;20090;-85
2022/02/26 01:38:55;;;;;;;5.03;2.40;;;6.40;78.00;;;;;;4827328;29;20087;-85
2022/02/26 01:41:23;;;;;;;4.18;2.75;;;6.40;78.00;;;;;;4827914;29;20032;-85
2022/02/26 01:43:49;;;;;;;3.30;2.08;;;6.40;78.00;;;;;;4827104;29;20038;-85
2022/02/26 01:46:15;;;;;;;3.45;2.38;;;6.30;78.00;;;;;;4812482;29;20045;-85
2022/02/26 01:48:41;;;;;;;4.03;2.35;;;6.40;78.00;;;;;;4826928;29;20026;-85
2022/02/26 01:51:08;;;;;;;4.63;2.53;;;6.30;78.00;;;;;;4812089;29;20036;-85
2022/02/26 01:53:35;;;;;;;4.70;1.98;;;6.30;78.00;;;;;;4811631;29;20038;-85
2022/02/26 01:56:06;;;;;;;3.63;2.42;;;6.30;78.00;;;;;;4826932;29;20489;-86
2022/02/26 01:58:32;;;;;;;3.95;2.50;;;6.20;78.00;;;;;;4812004;29;20034;-86
2022/02/26 02:00:58;;;;;;;3.83;2.40;;;6.20;78.00;;;;;;4827237;29;20083;-84
2022/02/26 02:03:24;;;;;;;3.78;2.30;;;6.20;78.60;;;;;;4811677;29;20489;-85
2022/02/26 02:05:50;;;;;;;3.15;2.35;;;6.20;78.00;;;;;;4827009;29;20037;-86
2022/02/26 02:08:16;;;;;;;3.67;2.33;;;6.20;78.00;;;;;;4829646;29;20030;-85
2022/02/26 02:10:43;;;;;;;3.65;2.35;;;6.10;77.90;;;;;;4830687;29;20041;-85
2022/02/26 02:13:09;;;;;;;3.85;2.38;;;6.10;77.90;;;;;;4830134;29;20037;-85
2022/02/26 02:15:40;;;;;;;4.43;2.70;;;6.10;77.90;;;;;;4830159;29;20038;-84
2022/02/26 02:18:08;;;;;;;4.68;2.70;;;6.10;78.00;;;;;;4800678;29;20434;-84
2022/02/26 02:20:34;;;;;;;4.20;2.42;;;6.10;78.00;;;;;;4800823;29;20045;-85
2022/02/26 02:23:00;;;;;;;4.07;2.60;;;6.00;77.90;;;;;;4814818;29;20038;-85
2022/02/26 02:25:29;;;;;;;3.92;2.30;;;6.00;77.90;;;;;;4814551;29;20050;-85
2022/02/26 02:27:56;;;;;;;3.60;2.50;;;6.00;77.90;;;;;;4846137;29;20077;-85
2022/02/26 02:30:24;;;;;;;4.80;2.90;;;6.00;77.90;;;;;;4829920;29;20113;-83
2022/02/26 02:32:49;;;;;;;5.15;2.67;;;5.90;77.90;;;;;;4814688;29;20067;-84
2022/02/26 02:35:33;;;;;;;3.22;2.20;;;5.90;77.90;;;;;;4814778;29;20030;-85
2022/02/26 02:38:05;;;;;;;4.03;2.53;;;5.90;78.00;;;;;;4814888;29;20049;-85
2022/02/26 02:40:31;;;;;;;4.00;2.60;;;5.90;77.90;;;;;;4829758;29;20044;-85
2022/02/26 02:42:57;;;;;;;3.70;2.55;;;5.80;77.80;;;;;;4814391;29;20113;-84
2022/02/26 02:45:25;;;;;;;4.55;2.42;;;5.90;77.90;;;;;;4814641;29;20030;-85
2022/02/26 02:47:51;;;;;;;4.30;2.50;;;5.80;77.90;;;;;;4814686;29;20045;-85
2022/02/26 02:50:17;;;;;;;4.70;2.53;;;5.80;77.90;;;;;;4830179;29;20038;-85
2022/02/26 02:52:44;;;;;;;3.90;2.55;;;5.80;77.90;;;;;;4830785;29;20082;-84
2022/02/26 02:55:12;;;;;;;3.28;2.33;;;5.80;77.90;;;;;;4815134;29;20074;-84
2022/02/26 02:57:39;;;;;;;4.05;2.35;;;5.80;77.90;;;;;;4815344;29;20041;-85
2022/02/26 03:00:06;;;;;;;5.53;2.85;;;5.70;77.90;;;;;;4829531;29;20038;-85
2022/02/26 03:02:33;;;;;;;3.63;2.45;;;5.70;77.80;;;;;;4845720;29;20030;-85
2022/02/26 03:04:58;;;;;;;3.80;2.58;;;5.70;77.90;;;;;;4829365;29;20122;-84
2022/02/26 03:07:24;;;;;;;5.32;2.83;;;5.70;77.90;;;;;;4829479;29;20153;-85
2022/02/26 03:09:50;;;;;;;4.15;2.40;;;5.60;77.90;;;;;;4829138;29;20501;-85
2022/02/26 03:12:17;;;;;;;3.90;2.60;;;5.70;77.90;;;;;;4828914;29;20390;-84
2022/02/26 03:14:43;;;;;;;4.95;2.58;;;5.60;77.80;;;;;;4829278;29;20033;-84
2022/02/26 03:17:09;;;;;;;3.90;2.58;;;5.60;77.90;;;;;;4814043;29;20034;-84
2022/02/26 03:19:35;;;;;;;4.35;2.60;;;5.60;77.90;;;;;;4813978;29;20037;-85
2022/02/26 03:22:01;;;;;;;4.03;2.50;;;5.60;77.90;;;;;;4814065;29;20030;-85
2022/02/26 03:24:27;;;;;;;4.47;2.70;;;5.60;77.90;;;;;;4829045;29;20053;-85
2022/02/26 03:26:56;;;;;;;4.25;2.72;;;5.50;77.90;;;;;;4813869;29;20049;-84
2022/02/26 03:29:28;;;;;;;5.53;2.90;;;5.50;77.90;;;;;;4814293;29;20068;-84
2022/02/26 03:31:55;;;;;;;4.57;2.53;;;5.50;77.90;;;;;;4829414;29;20026;-84
2022/02/26 03:34:21;;;;;;;4.47;2.70;;;5.50;77.90;;;;;;4813805;29;20054;-85
2022/02/26 03:36:48;;;;;;;4.32;2.70;;;5.40;77.80;;;;;;4813509;29;20113;-85
2022/02/26 03:39:15;;;;;;;4.15;2.80;;;5.40;77.80;;;;;;4799011;29;20034;-83
2022/02/26 03:41:41;;;;;;;6.50;3.00;;;5.40;77.80;;;;;;4845351;29;20029;-83
2022/02/26 03:44:08;;;;;;;4.60;2.78;;;5.40;77.80;;;;;;4813688;29;20044;-83
2022/02/26 03:46:35;;;;;;;4.13;2.53;;;5.30;77.80;;;;;;4829147;29;20042;-83
2022/02/26 03:49:03;;;;;;;4.50;2.60;;;5.40;77.90;;;;;;4828607;29;20471;-82
2022/02/26 03:51:30;;;;;;;3.53;2.25;;;5.40;77.90;;;;;;4828691;29;20037;-83
2022/02/26 03:53:55;;;;;;;4.38;2.78;;;5.30;77.80;;;;;;4813434;29;20059;-83
2022/02/26 03:56:21;;;;;;;4.20;2.83;;;5.30;77.80;;;;;;4814296;29;20046;-82
2022/02/26 03:58:50;;;;;;;4.28;2.70;;;5.30;77.80;;;;;;4813773;29;20037;-84
2022/02/26 04:01:18;;;;;;;4.93;2.67;;;5.30;77.80;;;;;;4813284;29;20030;-83
2022/02/26 04:03:44;;;;;;;4.97;2.92;;;5.30;77.80;;;;;;4813144;29;20514;-83
2022/02/26 04:06:11;;;;;;;5.10;2.65;;;5.20;77.80;;;;;;4844608;29;20046;-83
2022/02/26 04:08:39;;;;;;;4.80;2.88;;;5.20;77.80;;;;;;4813006;29;20141;-83
2022/02/26 04:11:06;;;;;;;4.60;2.63;;;5.20;77.80;;;;;;4813617;29;20062;-83
2022/02/26 04:13:32;;;;;;;4.82;2.67;;;5.20;77.80;;;;;;4828298;29;20501;-83
2022/02/26 04:15:58;;;;;;;5.53;3.00;;;5.20;77.90;;;;;;4813601;29;20089;-83
2022/02/26 04:18:24;;;;;;;4.18;2.58;;;5.20;77.80;;;;;;4812873;29;20114;-83
2022/02/26 04:20:50;;;;;;;5.05;2.88;;;5.10;77.80;;;;;;4813252;29;20048;-83
2022/02/26 04:23:17;;;;;;;5.20;3.00;;;5.10;77.80;;;;;;4828228;29;20452;-83
2022/02/26 04:25:43;;;;;;;4.82;2.65;;;5.10;77.80;;;;;;4812430;29;20081;-83
2022/02/26 04:28:09;;;;;;;4.78;2.72;;;5.10;77.80;;;;;;4813275;29;20042;-84
2022/02/26 04:30:37;;;;;;;5.18;3.05;;;5.10;77.80;;;;;;4812042;29;20034;-84
2022/02/26 04:33:04;;;;;;;5.65;3.00;;;5.00;77.80;;;;;;4827977;29;20064;-83
2022/02/26 04:35:30;;;;;;;5.53;2.85;;;5.00;77.80;;;;;;4812962;29;20026;-83
2022/02/26 04:37:56;;;;;;;4.45;2.60;;;5.00;77.80;;;;;;4827797;29;20137;-83
2022/02/26 04:40:22;;;;;;;5.00;3.63;;;5.00;77.80;;;;;;4812588;29;20034;-83
2022/02/26 04:42:48;;;;;;;5.55;2.95;;;5.00;77.80;;;;;;4828366;29;20565;-84
2022/02/26 04:45:14;;;;;;;4.07;3.10;;;5.00;77.80;;;;;;4813123;29;20341;-83
2022/02/26 04:47:41;;;;;;;5.85;3.13;;;4.90;77.80;;;;;;4812382;29;20041;-83
2022/02/26 04:50:09;;;;;;;5.43;3.17;;;5.00;77.90;;;;;;4843821;29;20085;-84
2022/02/26 04:52:35;;;;;;;4.97;3.10;;;4.90;77.80;;;;;;4827939;29;20030;-83
2022/02/26 04:55:02;;;;;;;4.80;2.80;;;4.90;77.80;;;;;;4827780;29;20480;-83
2022/02/26 04:57:28;;;;;;;5.03;3.10;;;4.90;77.80;;;;;;4813132;29;20045;-83
2022/02/26 04:59:54;;;;;;;6.18;3.20;;;4.90;77.80;;;;;;4812862;29;20466;-83
2022/02/26 05:02:20;;;;;;;4.38;3.00;;;4.90;77.80;;;;;;4812288;29;20029;-84
2022/02/26 05:04:46;;;;;;;4.18;2.92;;;4.90;77.80;;;;;;4812477;29;20029;-84
2022/02/26 05:07:15;;;;;;;3.90;2.70;;;4.80;77.70;;;;;;4796928;29;20566;-83
2022/02/26 05:09:42;;;;;;;4.18;2.70;;;4.80;77.80;;;;;;4812272;29;20034;-83
2022/02/26 05:12:09;;;;;;;4.57;2.85;;;4.80;77.80;;;;;;4827242;29;20033;-83
2022/02/26 05:14:35;;;;;;;5.15;2.92;;;4.80;77.80;;;;;;4827997;29;20042;-83
2022/02/26 05:17:01;;;;;;;4.60;2.80;;;4.80;77.80;;;;;;4812425;29;20041;-83
2022/02/26 05:19:26;;;;;;;5.28;2.63;;;4.70;77.80;;;;;;4812585;29;20034;-83
2022/02/26 05:21:52;;;;;;;4.60;3.08;;;4.80;77.90;;;;;;4811932;29;20082;-83
2022/02/26 05:24:18;;;;;;;4.32;2.85;;;4.80;77.80;;;;;;4812030;29;20123;-84
2022/02/26 05:26:44;;;;;;;4.50;2.72;;;4.80;77.90;;;;;;4796597;29;20058;-83
2022/02/26 05:29:10;;;;;;;5.43;2.70;;;4.70;77.80;;;;;;4811892;29;20046;-83
2022/02/26 05:31:36;;;;;;;4.97;3.05;;;4.70;77.80;;;;;;4811912;29;20074;-83
2022/02/26 05:34:02;;;;;;;5.20;3.20;;;4.70;77.90;;;;;;4827230;29;20143;-83
2022/02/26 05:36:28;;;;;;;5.07;3.03;;;4.70;77.80;;;;;;4811821;29;20044;-82
2022/02/26 05:38:54;;;;;;;5.63;3.42;;;4.70;77.90;;;;;;4812177;29;20027;-83
2022/02/26 05:41:20;;;;;;;4.28;3.22;;;4.70;78.50;;;;;;4797913;29;20037;-83
2022/02/26 05:43:49;;;;;;;4.90;3.30;;;4.60;77.80;;;;;;4815807;29;20057;-84
2022/02/26 05:46:15;;;;;;;6.05;3.40;;;4.60;77.90;;;;;;4815408;29;20046;-83
2022/02/26 05:48:41;;;;;;;4.78;3.30;;;4.60;77.90;;;;;;4815277;29;20371;-83
2022/02/26 05:51:07;;;;;;;5.68;3.42;;;4.60;77.90;;;;;;4815143;29;20038;-83
2022/02/26 05:53:33;;;;;;;5.57;3.78;;;4.60;77.90;;;;;;4815160;29;20030;-83
2022/02/26 05:55:59;;;;;;;5.32;3.50;;;4.60;78.00;;;;;;4800794;29;20101;-83
2022/02/26 05:58:25;;;;;;;5.05;2.97;;;4.60;78.00;;;;;;4830504;29;20049;-83
2022/02/26 06:00:51;;;;;;;5.20;2.92;;;4.60;78.00;;;;;;4800056;29;20038;-83
2022/02/26 06:03:17;;;;;;;5.47;3.35;;;4.60;78.00;;;;;;4830041;29;20037;-83
2022/02/26 06:05:44;;;;;;;6.30;3.65;;;4.60;78.00;;;;;;4830325;29;20030;-83
2022/02/26 06:08:10;;;;;;;4.88;3.25;;;4.60;78.10;;;;;;4815463;29;20033;-84
2022/02/26 06:10:36;;;;;;;5.45;3.03;;;4.60;78.10;;;;;;4800433;29;20373;-84
2022/02/26 06:13:01;;;;;;;5.00;3.38;;;4.60;78.00;;;;;;4815648;29;20038;-84
2022/02/26 06:15:28;;;;;;;4.82;3.45;;;4.60;78.10;;;;;;4815224;29;20034;-83
2022/02/26 06:17:54;;;;;;;6.25;3.67;;;4.50;78.00;;;;;;4815397;29;20049;-83
2022/02/26 06:20:19;;;;;;;3.97;3.08;;;4.60;78.10;;;;;;4800358;29;20034;-83
2022/02/26 06:22:45;;;;;;;5.15;3.25;;;4.60;78.10;;;;;;4815031;29;20036;-83
2022/02/26 06:25:11;;;;;;;4.47;3.40;;;4.60;78.10;;;;;;4814993;29;20523;-84
2022/02/26 06:27:42;;;;;;;4.13;2.95;;;4.50;78.00;;;;;;4814623;29;20094;-83
2022/02/26 06:30:11;;;;;;;5.38;3.22;;;4.50;78.10;;;;;;4815051;29;20034;-83
2022/02/26 06:32:38;;;;;;;4.38;3.20;;;4.50;78.10;;;;;;4815298;29;20094;-84
2022/02/26 06:35:05;;;;;;;4.93;3.92;;;4.50;78.10;;;;;;4814973;29;20041;-83
2022/02/26 06:37:31;;;;;;;4.90;3.45;;;4.50;78.10;;;;;;4814786;29;20026;-83
2022/02/26 06:39:57;;;;;;;5.05;3.50;;;4.50;78.10;;;;;;4815316;29;20042;-83
2022/02/26 06:42:24;;;;;;;4.40;3.42;;;4.50;78.10;;;;;;4814699;29;20026;-84
2022/02/26 06:44:50;;;;;;;4.65;3.30;;;4.50;78.10;;;;;;4815500;29;20042;-82
2022/02/26 06:47:16;;;;;;;3.80;3.20;;;4.50;78.20;;;;;;4814918;29;20038;-83
2022/02/26 06:49:42;;;;;;;4.50;3.30;;;4.50;78.20;;;;;;4799387;29;20049;-83
2022/02/26 06:52:08;;;;;;;4.30;3.33;;;4.50;78.20;;;;;;4829491;29;20151;-84
2022/02/26 06:54:34;;;;;;;4.47;3.30;;;4.50;78.20;;;;;;4828989;29;20034;-84
2022/02/26 06:57:00;;;;;;;4.22;3.47;;;4.50;78.20;;;;;;4829568;29;20511;-83
2022/02/26 06:59:26;;;;;;;3.90;3.00;;;4.50;78.20;;;;;;4814499;29;20034;-83
2022/02/26 07:01:53;;;;;;;4.68;4.00;;;4.50;78.20;;;;;;4814169;29;20026;-84
2022/02/26 07:04:19;;;;;;;4.15;3.40;;;4.50;78.20;;;;;;4844981;29;20041;-77
2022/02/26 07:06:45;;;;;;;4.55;3.35;;;4.50;78.20;;;;;;4844817;29;20077;-79
2022/02/26 07:09:21;;;;;;;5.72;4.05;;;4.50;78.30;;;;;;4813510;29;20030;-81
2022/02/26 07:11:48;;;;;;;3.90;3.03;;;4.50;78.30;;;;;;4828903;29;20110;-80
2022/02/26 07:14:15;;;;;;;4.90;3.88;;;4.50;78.30;;;;;;4828487;29;20116;-78
2022/02/26 07:16:41;;;;;;;4.20;3.35;;;4.50;78.30;;;;;;4828515;29;20120;-80
2022/02/26 07:19:07;;;;;;;4.20;3.30;;;4.50;78.30;;;;;;4828527;29;20030;-80
2022/02/26 07:21:35;;;;;;;3.78;3.22;;;4.50;78.40;;;;;;4828425;29;20038;-79
2022/02/26 07:24:01;;;;;;;3.42;3.13;;;4.50;78.40;;;;;;4828601;29;20421;-80
2022/02/26 07:26:29;;;;;;;4.57;3.58;;;4.50;79.00;;;;;;4809898;29;20477;-80
2022/02/26 07:28:55;;;;;;;3.88;3.25;;;4.50;78.40;;;;;;4810588;29;20062;-80
2022/02/26 07:31:21;;;;;;;4.25;3.20;;;4.50;78.40;;;;;;4825206;29;20535;-79
2022/02/26 07:33:48;;;;;;;3.97;3.28;;;4.50;78.40;;;;;;4825152;29;20486;-79
2022/02/26 07:36:14;;;;;;;4.38;3.63;;;4.50;79.10;;;;;;4825335;29;20062;-78
2022/02/26 07:38:40;;;;;;;4.05;3.50;;;4.50;78.40;;;;;;4794903;29;20077;-79
2022/02/26 07:41:07;;;;;;;4.20;3.42;;;4.50;78.50;;;;;;4824893;29;20035;-79
2022/02/26 07:43:34;;;;;;;4.57;3.45;;;4.50;78.50;;;;;;4824814;29;20034;-80
2022/02/26 07:46:00;;;;;;;4.40;3.72;;;4.50;78.50;;;;;;4824646;29;20038;-79
2022/02/26 07:48:26;;;;;;;5.00;3.65;;;4.50;78.50;;;;;;4824856;29;20140;-80
2022/02/26 07:50:52;;;;;;;4.60;3.78;;;4.50;78.50;;;;;;4824858;29;20391;-80
2022/02/26 07:53:18;;;;;;;4.68;3.60;;;4.50;78.50;;;;;;4794573;29;20061;-80
2022/02/26 07:55:43;;;;;;;4.18;3.60;;;4.50;78.50;;;;;;4809640;29;20443;-79
2022/02/26 07:58:09;;;;;;;5.72;4.70;;;4.50;78.50;;;;;;4825366;29;20046;-80
2022/02/26 08:00:35;;;;;;;4.60;3.78;;;4.50;78.50;;;;;;4809665;29;20038;-81
2022/02/26 08:03:02;;;;;;;4.82;3.70;;;4.50;78.60;;;;;;4809688;29;20027;-80
2022/02/26 08:05:28;;;;;;;4.78;3.88;;;4.50;78.60;;;;;;4809038;29;20030;-83
2022/02/26 08:07:54;;;;;;;4.53;3.70;;;4.50;78.60;;;;;;4825852;29;20087;-82
2022/02/26 08:10:22;;;;;;;4.60;4.03;;;4.60;78.70;;;;;;4824909;29;20042;-81
2022/02/26 08:12:52;;;;;;;4.43;3.83;;;4.60;78.70;;;;;;4809692;29;20027;-82
2022/02/26 08:15:23;;;;;;;4.63;4.13;;;4.60;78.70;;;;;;4825953;29;20034;-82
2022/02/26 08:17:49;;;;;;;4.95;3.72;;;4.50;78.70;;;;;;4809881;29;20052;-80
2022/02/26 08:20:17;;;;;;;5.80;4.22;;;4.60;78.70;;;;;;4825098;29;20026;-79
2022/02/26 08:22:44;;;;;;;5.32;4.60;;;4.50;78.70;;;;;;4809698;29;20039;-82
2022/02/26 08:25:11;;;;;;;5.53;4.15;;;4.60;78.80;;;;;;4824726;29;20049;-82
2022/02/26 08:27:37;;;;;;;5.65;4.53;;;4.60;78.80;;;;;;4824799;29;20058;-82
2022/02/26 08:30:06;;;;;;;5.80;4.60;;;4.60;78.80;;;;;;4825158;29;20042;-82
2022/02/26 08:32:32;;;;;;;5.45;4.32;;;4.60;78.80;;;;;;4809690;29;20078;-83
2022/02/26 08:34:58;;;;;;;5.57;4.35;;;4.60;78.80;;;;;;4824746;29;20038;-83
2022/02/26 08:37:23;;;;;;;6.20;4.45;;;4.60;78.80;;;;;;4809504;29;20030;-81
2022/02/26 08:39:49;;;;;;;5.53;4.60;;;4.60;78.80;;;;;;4809807;29;20479;-82
2022/02/26 08:42:15;;;;;;;5.38;4.65;;;4.60;78.90;;;;;;4825032;29;20389;-83
2022/02/26 08:44:41;;;;;;;5.93;4.55;;;4.60;78.90;;;;;;4810429;29;20413;-83
2022/02/26 08:47:07;;;;;;;5.28;4.43;;;4.60;78.80;;;;;;4824961;29;20468;-82
2022/02/26 08:49:33;;;;;;;5.60;4.30;;;4.60;78.90;;;;;;4824952;29;20038;-82
2022/02/26 08:52:00;;;;;;;5.70;4.78;;;4.70;78.90;;;;;;4810382;29;20052;-83
2022/02/26 08:54:26;;;;;;;5.65;4.35;;;4.70;79.00;;;;;;4809901;29;20099;-82
2022/02/26 08:56:51;;;;;;;5.22;4.28;;;4.70;79.00;;;;;;4780316;29;20031;-82
2022/02/26 08:59:17;;;;;;;5.00;4.15;;;4.70;79.00;;;;;;4795406;29;20042;-81
2022/02/26 09:01:43;;;;;;;5.50;4.85;;;4.70;79.00;;;;;;4809801;29;20022;-80
2022/02/26 09:04:09;;;;;;;5.90;4.68;;;4.80;79.00;;;;;;4810463;29;20035;-78
2022/02/26 09:06:35;;;;;;;4.97;4.25;;;4.70;79.00;;;;;;4809401;29;20046;-83
2022/02/26 09:09:04;;;;;;;6.07;4.88;;;4.70;79.00;;;;;;4794033;29;20030;-80
2022/02/26 09:11:30;;;;;;;5.45;4.55;;;4.80;79.10;;;;;;4809555;29;20030;-82
2022/02/26 09:13:55;;;;;;;5.18;4.53;;;4.80;79.00;;;;;;4809973;29;20033;-81
2022/02/26 09:16:21;;;;;;;6.18;5.03;;;4.80;79.10;;;;;;4809607;29;20038;-82
2022/02/26 09:18:47;;;;;;;6.32;5.40;;;4.80;79.10;;;;;;4824778;29;20504;-81
2022/02/26 09:21:13;;;;;;;5.75;4.90;;;4.90;79.10;;;;;;4826568;29;20461;-80
2022/02/26 09:23:39;;;;;;;6.70;5.30;;;4.90;79.10;;;;;;4829066;29;20030;-81
2022/02/26 09:26:06;;;;;;;5.97;4.82;;;4.90;79.10;;;;;;4825375;29;20557;-82
2022/02/26 09:28:33;;;;;;;5.47;4.57;;;4.90;79.10;;;;;;4824586;29;20042;-81
2022/02/26 09:31:01;;;;;;;5.57;4.55;;;4.90;79.10;;;;;;4810733;29;20058;-82
2022/02/26 09:33:29;;;;;;;5.93;4.63;;;5.00;79.20;;;;;;4794421;29;20043;-80
2022/02/26 09:35:56;;;;;;;5.35;4.43;;;5.00;79.10;;;;;;4824179;29;20070;-80
2022/02/26 09:38:22;;;;;;;4.88;4.25;;;5.00;79.10;;;;;;4824133;29;20066;-81
2022/02/26 09:40:48;;;;;;;5.40;4.53;;;5.10;79.20;;;;;;4826275;29;20031;-80
2022/02/26 09:43:14;;;;;;;5.93;4.93;;;5.00;79.10;;;;;;4812199;29;20544;-81
2022/02/26 09:45:39;;;;;;;5.22;4.72;;;5.10;79.10;;;;;;4812066;29;20026;-81
2022/02/26 09:48:05;;;;;;;5.50;4.63;;;5.10;79.10;;;;;;4820336;29;20043;-81
2022/02/26 09:50:31;;;;;;;5.93;5.05;;;5.20;79.20;;;;;;4825355;29;20061;-81
2022/02/26 09:52:57;;;;;;;6.10;4.95;;;5.20;79.20;;;;;;4809634;29;20045;-80
2022/02/26 09:55:23;;;;;;;6.32;4.90;;;5.20;79.20;;;;;;4794859;29;20061;-80
2022/02/26 09:57:49;;;;;;;5.65;4.78;;;5.20;79.10;;;;;;4810288;29;20038;-81
2022/02/26 10:00:16;;;;;;;5.68;4.75;;;5.30;79.20;;;;;;4810219;29;20034;-81
2022/02/26 10:02:48;;;;;;;5.97;4.65;;;5.30;79.20;;;;;;4809331;29;20040;-80
2022/02/26 10:05:16;;;;;;;5.82;4.88;;;5.40;79.20;;;;;;4810528;29;20034;-80
2022/02/26 10:07:42;;;;;;;5.38;4.63;;;5.40;79.70;;;;;;4794692;29;20046;-81
2022/02/26 10:10:15;;;;;;;6.40;5.18;;;5.40;79.10;;;;;;4810791;29;20065;-79
2022/02/26 10:12:41;;;;;;;6.57;5.20;;;5.50;79.20;;;;;;4810745;29;20027;-79
2022/02/26 10:15:24;;;;;;;6.75;5.20;;;5.50;79.10;;;;;;4826447;29;20095;-81
2022/02/26 10:17:58;;;;;;;5.68;4.97;;;5.60;79.20;;;;;;4826687;29;20045;-79
2022/02/26 10:20:25;;;;;;;5.82;4.78;;;5.60;79.10;;;;;;4825779;29;20551;-82
2022/02/26 10:22:52;;;;;;;6.85;5.40;;;5.70;79.10;;;;;;4825643;29;20034;-83
2022/02/26 10:25:21;;;;;;;6.15;5.05;;;5.70;79.10;;;;;;4810367;29;20098;-79
2022/02/26 10:27:52;;;;;;;6.78;5.65;;;5.80;79.20;;;;;;4813412;29;20632;-79
2022/02/26 10:30:27;;;;;;;6.55;5.38;;;5.80;79.10;;;;;;4831959;29;20034;-80
2022/02/26 10:33:06;;;;;;;6.97;5.80;;;5.90;79.20;;;;;;4829846;29;20037;-78
2022/02/26 10:35:39;;;;;;;6.72;5.55;;;5.90;79.20;;;;;;4829586;29;20058;-79
2022/02/26 10:38:20;;;;;;;7.80;5.60;;;6.00;79.10;;;;;;4815380;29;20031;-79
2022/02/26 10:40:53;;;;;;;7.32;5.47;;;6.00;79.20;;;;;;4829855;29;20034;-80
2022/02/26 10:43:41;;;;;;;6.63;5.47;;;6.10;79.10;;;;;;4829873;29;20034;-78
2022/02/26 10:46:20;;;;;;;7.40;5.78;;;6.20;79.40;;;;;;4829892;29;20448;-80
2022/02/26 10:48:46;;;;;;;7.57;5.55;;;6.20;79.30;;;;;;4816527;29;20030;-82
2022/02/26 10:51:18;;;;;;;7.88;5.72;;;6.30;79.30;;;;;;4830822;29;20046;-79
2022/02/26 10:53:44;;;;;;;6.72;5.57;;;6.40;79.40;;;;;;4800948;29;20040;-78
2022/02/26 10:56:12;;;;;;;7.15;5.30;;;6.40;79.30;;;;;;4834541;29;20117;-79
2022/02/26 10:58:39;;;;;;;6.80;5.82;;;6.50;79.40;;;;;;4818013;29;20114;-78
2022/02/26 11:01:12;;;;;;;5.95;4.90;;;6.60;79.40;;;;;;4831146;29;20030;-81
2022/02/26 11:03:38;;;;;;;6.78;5.28;;;6.70;79.50;;;;;;4846007;29;20063;-78
2022/02/26 11:06:06;;;;;;;7.78;5.43;;;6.70;79.40;;;;;;4814418;29;20034;-87
2022/02/26 11:08:38;;;;;;;6.18;5.05;;;6.80;79.40;;;;;;4815808;29;20042;-85
2022/02/26 11:11:06;;;;;;;6.55;4.82;;;6.90;79.40;;;;;;4814748;29;20053;-81
2022/02/26 11:13:34;;;;;;;6.10;4.80;;;6.90;79.40;;;;;;4815225;29;20446;-79
2022/02/26 11:16:02;;;;;;;6.45;4.90;;;7.00;79.50;;;;;;4814458;29;20026;-81
2022/02/26 11:18:41;;;;;;;7.50;4.65;;;7.00;79.40;;;;;;4814156;29;20037;-78
2022/02/26 11:21:09;;;;;;;6.22;4.45;;;7.20;79.60;;;;;;4829450;29;20030;-92
2022/02/26 11:23:36;;;;;;;6.20;4.07;;;7.20;79.40;;;;;;4813744;29;20065;-79
2022/02/26 11:26:02;;;;;;;6.28;4.35;;;7.30;79.40;;;;;;4810621;29;20050;-80
2022/02/26 11:28:33;;;;;;;5.43;4.03;;;7.30;79.40;;;;;;4825970;29;20081;-87
2022/02/26 11:31:03;;;;;;;5.03;4.07;;;7.40;79.50;;;;;;4826475;29;20553;-80
2022/02/26 11:33:31;;;;;;;5.32;3.95;;;7.40;79.40;;;;;;4826716;29;20179;-82
2022/02/26 11:36:01;;;;;;;5.50;3.95;;;7.50;79.50;;;;;;4825761;29;20061;-81
2022/02/26 11:38:31;;;;;;;5.00;3.85;;;7.60;79.50;;;;;;4826800;29;20050;-90
2022/02/26 11:41:24;;;;;;;5.63;3.88;;;7.60;79.50;;;;;;4811278;29;20038;-82
2022/02/26 11:43:57;;;;;;;5.38;3.88;;;7.70;79.60;;;;;;4811040;29;20034;-80
2022/02/26 11:46:27;;;;;;;4.63;3.65;;;7.70;79.50;;;;;;4826058;29;20034;-80
2022/02/26 11:48:54;;;;;;;4.10;3.13;;;7.80;79.60;;;;;;4825222;29;20113;-81
2022/02/26 11:51:31;;;;;;;5.50;3.53;;;7.80;79.60;;;;;;4809099;29;20046;-80
2022/02/26 11:53:56;;;;;;;6.32;3.13;;;7.90;79.80;;;;;;4825292;29;20034;-79
2022/02/26 11:56:39;;;;;;;6.40;3.22;;;7.90;79.70;;;;;;4825131;29;20428;-79
2022/02/26 11:59:05;;;;;;;5.03;3.20;;;8.00;79.70;;;;;;4825572;29;20041;-79
2022/02/26 12:01:31;;;;;;;4.38;2.90;;;8.00;79.60;;;;;;4809519;29;20030;-80
2022/02/26 12:03:57;;;;;;;4.63;2.90;;;8.10;79.70;;;;;;4824852;29;20030;-80
2022/02/26 12:06:22;;;;;;;5.00;2.70;;;8.10;79.70;;;;;;4824824;29;20042;-78
2022/02/26 12:09:01;;;;;;;4.68;2.67;;;8.10;79.60;;;;;;4825235;29;20399;-79
2022/02/26 12:11:37;;;;;;;4.78;2.88;;;8.20;79.70;;;;;;4825585;29;20038;-79
2022/02/26 12:14:05;;;;;;;5.28;2.55;;;8.30;79.80;;;;;;4825401;29;20402;-80
2022/02/26 12:16:38;;;;;;;4.18;2.50;;;8.30;79.70;;;;;;4825121;29;20034;-80
2022/02/26 12:19:22;;;;;;;4.88;2.65;;;8.40;79.80;;;;;;4824595;29;20042;-79
2022/02/26 12:21:55;;;;;;;4.70;2.40;;;8.40;79.80;;;;;;4824581;29;20070;-83
2022/02/26 12:24:27;;;;;;;3.50;2.22;;;8.50;79.70;;;;;;4825187;29;20030;-82
2022/02/26 12:27:09;;;;;;;3.75;2.60;;;8.50;79.70;;;;;;4824554;29;20051;-79
2022/02/26 12:29:44;;;;;;;3.63;2.60;;;8.60;79.80;;;;;;4809309;29;20038;-79
2022/02/26 12:32:29;;;;;;;3.03;2.17;;;8.60;79.70;;;;;;4824500;29;20078;-81
2022/02/26 12:34:58;;;;;;;;;;;8.70;79.80;;;;;;4825266;29;20034;-84
2022/02/26 12:37:27;;;;;;;3.55;2.15;;;8.70;79.50;;;;;;4825087;29;20342;-79
2022/02/26 12:40:04;;;;;;;2.38;1.88;;;8.80;79.60;;;;;;4825470;29;20476;-81
2022/02/26 12:42:32;;;;;;;3.30;2.13;;;8.80;79.60;;;;;;4810862;29;20445;-82
2022/02/26 12:45:00;;;;;;;4.20;2.50;;;8.90;79.70;;;;;;4826215;29;20022;-81
2022/02/26 12:47:27;;;;;;;2.83;2.05;;;8.90;79.70;;;;;;4825265;29;20046;-80
2022/02/26 12:49:54;;;;;;;3.35;2.33;;;9.00;79.70;;;;;;4824545;29;20086;-80
2022/02/26 12:52:20;;;;;;;3.70;2.15;;;9.10;79.70;;;;;;4808546;29;20121;-80
2022/02/26 12:54:46;;;;;;;3.30;1.98;;;9.10;79.70;;;;;;4824479;29;20091;-80
2022/02/26 12:57:13;;;;;;;2.10;1.75;;;9.20;79.70;;;;;;4809325;29;20046;-81
2022/02/26 12:59:40;;;;;;;3.58;2.00;;;9.20;79.70;;;;;;4810044;29;20034;-79